Welcome to our Virtual Airline
Sign-in:

Flight MFC108102

  • Submitted By: James Smith
  • Departure Airport: Moser Bay (KMY)
  • Arrival Airport: Old Harbor (6R7)
  • Aircraft: CESSNA 170 (N170MM)
  • Flight Time: 00.33.55
  • Date Submitted: 22/03/07
  • Route: STOP BFD02, PZ07, BFD04
  • Status: Accepted
Flight Details
Gross Revenue:
(2 load / $ 35.00 per unit
$ 70.00
Fuel Cost:
(14.515 fuel used @ 5.1 / unit)
$ 74.03

Additional Log Information:

View Log

[14:53] ----- Flight Opened -----
[14:53] Cigar Box - 1.1.4.0
[14:53] FS:
[14:53] FSUIPC: v7.213
[14:53] Flight Number: MFC108102
[14:53] FS Aircraft: Cessna Super 170B Float Green
[14:53] FS Model: TT:ATCCOM.AC_MODEL 170.
[14:53] FS Type: TT:ATCCOM.ATC_NAME CESS
[14:53] Departure: KMY
[14:53] Arrival: 6R7
[14:53] Flight Level: 3500
[14:53] Flight Type: H
[14:53] Passengers: 2
[14:53] FOB: 106 lbs
[14:53] Gate: n/a
[14:53] NOTE: Parking Brake Ignored
[14:53] Crash Detection: Disabled
[14:53] Crash Detection Aircraft: Disabled
[14:53] Engines: 1 Piston
[14:53] NOTE: Boarding has started
[14:53] Landing Gear: Retracted
[14:53] Flaps: Position 2
[14:53] Light Data: Navigation ON
[14:53] Light Data: Beacon ON
[14:53] Light Data: Strobe lights ON
[14:53] Light Data: Instrument lights ON
[14:53] Main Door Closed
[14:53] COM1: 125.10
[14:53] COM2: 124.85
[14:53] Transponder: 7733
[14:53] NAV1: 110.50
[14:53] NAV2: 110.50
[14:53] ADF1: 890.0
[14:53] ADF2: 890.0
[14:53] Navigation Mode: NAV
[14:53] Engine 1: Started
[14:54] NOTE: Taxi started
[14:55] NOTE: ----- TAKE OFF -----
[14:55] GS: 31 knots
[14:55] TAS: 32 knots
[14:55] IAS: 20 knots
[14:55] VS: 8 fpm
[14:55] FOB: 106 lbs
[14:55] Heading: 185°
[14:55] Pitch: 3°
[14:55] Bank: 0°
[14:55] Aircraft Weight: 1891.35 lbs
[14:55] Nearest Airport: KMY
[14:55] Distance: 0.59 miles
[14:55] Runway: ???
[14:55] Ground Surface: Water
[14:55] Ground Condition: Normal
[14:55] NOTE: Weather Report
[14:55] Wind Heading: 257°
[14:55] Wind Speed: 3 knots
[14:55] OAT: 15° C
[14:55] TAT: 15° C
[14:55] Precipitation: None
[14:55] Dew Point: 0° C
[14:55] Visibility: 84 miles
[14:55] METAR: KMYV 071853Z AUTO 35016G24KT 10SM CLR 16/M06 A3037 RMK AO2 SLP288 T01611056 KMYP 071414Z AUTO 25012KT M15/M17 A3002 RMK AO2 PWINO KMYZ 071915Z AUTO 31011KT 10SM CLR 00/M07 A3030 RMK AO2 KMYR 071856Z 20020G26KT 10SM MIFG CLR 23/14 A3006 RMK AO2 PK WND 20028/1840 SLP179 T02280144 KMYJ 071935Z AUTO 31011KT 10SM OVC022 00/M02 A3021 RMK AO2 KMYL 071851Z AUTO 19005KT 10SM OVC065 M04/M11 A3027 RMK AO2 SLP293 T10391111 KMYF 071853Z 31006KT 10SM CLR 18/05 A3021 RMK AO2 SLP228 T01780050
[14:55] NOTE: Climb started
[14:55] Flaps: Position 1
[14:55] GS: 69 knots
[14:55] TAS: 71 knots
[14:55] IAS: 68 knots
[14:55] VS: 555 fpm
[14:55] Flaps: Position 0
[14:55] GS: 71 knots
[14:55] TAS: 73 knots
[14:55] IAS: 70 knots
[14:55] VS: 1074 fpm
[14:55] View Mode: Virtual Cockpit
[14:58] Flaps: Position 1
[14:58] GS: 69 knots
[14:58] TAS: 69 knots
[14:58] IAS: 65 knots
[14:58] VS: -272 fpm
[14:58] Flaps: Position 2
[14:58] GS: 71 knots
[14:58] TAS: 69 knots
[14:58] IAS: 66 knots
[14:58] VS: -1057 fpm
[14:59] Stall: Encountered
[14:59] GS: 46 knots
[14:59] TAS: 46 knots
[14:59] IAS: 38 knots
[14:59] VS: -125 fpm
[14:59] NOTE: ----- LANDED -----
[14:59] Landing Rate: -142.26 fpm
[14:59] GS: 36 knots
[14:59] TAS: 39 knots
[14:59] IAS: 29 knots
[14:59] VS: -142 fpm
[14:59] FOB: 101 lbs
[14:59] Heading: 218°
[14:59] Pitch: 4°
[14:59] Bank: 0°
[14:59] Aircraft Weight: 1886.66 lbs
[14:59] Nearest Airport: BFD02
[14:59] Distance: 0.17 miles
[14:59] Runway: ???
[14:59] Ground Surface: Water
[14:59] Ground Condition: Normal
[14:59] NOTE: Weather Report
[14:59] Wind Heading: 262°
[14:59] Wind Speed: 3 knots
[14:59] OAT: 14° C
[14:59] TAT: 15° C
[14:59] Precipitation: None
[14:59] Dew Point: 0° C
[14:59] Visibility: 84 miles
[14:59] METAR:
[14:59] View Mode: Virtual Cockpit
[14:59] Stall: Corrected
[14:59] GS: 34 knots
[14:59] TAS: 36 knots
[14:59] IAS: 27 knots
[14:59] VS: -57 fpm
[14:59] NOTE: Taxi started
[14:59] Flaps: Position 1
[14:59] Flaps: Position 0
[15:01] Stall: Encountered
[15:01] GS: 17 knots
[15:01] TAS: 34 knots
[15:01] IAS: 20 knots
[15:01] VS: -2 fpm
[15:01] Stall: Corrected
[15:01] GS: 17 knots
[15:01] TAS: 32 knots
[15:01] IAS: 22 knots
[15:01] VS: -3 fpm
[15:02] View Mode: Virtual Cockpit
[15:08] Flaps: Position 2
[15:08] GS: 106 knots
[15:08] TAS: 103 knots
[15:08] IAS: 106 knots
[15:08] VS: -616 fpm
[15:08] Flaps: Position 3
[15:08] GS: 89 knots
[15:08] TAS: 86 knots
[15:08] IAS: 86 knots
[15:08] VS: -347 fpm
[15:09] NOTE: ----- LANDED -----
[15:09] Landing Rate: -312.19 fpm
[15:09] GS: 58 knots
[15:09] TAS: 59 knots
[15:09] IAS: 54 knots
[15:09] VS: -307 fpm
[15:09] FOB: 92 lbs
[15:09] Heading: 197°
[15:09] Pitch: 1°
[15:09] Bank: 4°
[15:09] Aircraft Weight: 1877.89 lbs
[15:09] Nearest Airport: PZ07
[15:09] Distance: 0.28 miles
[15:09] Runway: ???
[15:09] Ground Surface: Grass
[15:09] Ground Condition: Normal
[15:09] NOTE: Weather Report
[15:09] Wind Heading: 265°
[15:09] Wind Speed: 2 knots
[15:09] OAT: 14° C
[15:09] TAT: 15° C
[15:09] Precipitation: None
[15:09] Dew Point: 0° C
[15:09] Visibility: 84 miles
[15:09] METAR:
[15:09] View Mode: Virtual Cockpit
[15:10] Engine 1: Stopped
[15:10] Engine 1: Started
[15:10] Flaps: Position 2
[15:10] Flaps: Position 1
[15:10] Flaps: Position 0
[15:11] Flaps: Position 1
[15:11] View Mode: Virtual Cockpit
[15:11] Flaps: Position 0
[15:11] GS: 77 knots
[15:11] TAS: 78 knots
[15:11] IAS: 76 knots
[15:11] VS: 1064 fpm
[15:18] Flaps: Position 1
[15:18] GS: 91 knots
[15:18] TAS: 89 knots
[15:18] IAS: 90 knots
[15:18] VS: -1444 fpm
[15:18] Flaps: Position 2
[15:18] GS: 71 knots
[15:18] TAS: 70 knots
[15:18] IAS: 67 knots
[15:18] VS: 109 fpm
[15:19] Flaps: Position 3
[15:19] GS: 62 knots
[15:19] TAS: 65 knots
[15:19] IAS: 60 knots
[15:19] VS: -748 fpm
[15:19] NOTE: ----- LANDED -----
[15:19] Landing Rate: -139.18 fpm
[15:19] GS: 52 knots
[15:19] TAS: 54 knots
[15:19] IAS: 48 knots
[15:19] VS: -135 fpm
[15:19] FOB: 82 lbs
[15:19] Heading: 341°
[15:19] Pitch: 2°
[15:19] Bank: 0°
[15:19] Aircraft Weight: 1867.14 lbs
[15:19] Nearest Airport: AKA0
[15:19] Distance: 8.30 miles
[15:19] Runway: ???
[15:19] Ground Surface: Water
[15:19] Ground Condition: Normal
[15:19] NOTE: Weather Report
[15:19] Wind Heading: 258°
[15:19] Wind Speed: 2 knots
[15:19] OAT: 15° C
[15:19] TAT: 15° C
[15:19] Precipitation: None
[15:19] Dew Point: 0° C
[15:19] Visibility: 84 miles
[15:19] METAR:
[15:19] View Mode: Virtual Cockpit
[15:19] Flaps: Position 2
[15:19] Flaps: Position 1
[15:19] GS: 31 knots
[15:19] TAS: 32 knots
[15:19] IAS: 21 knots
[15:19] VS: -3 fpm
[15:19] Flaps: Position 0
[15:21] View Mode: Spot Plane
[15:23] COM1: 122.90
[15:25] Flaps: Position 1
[15:25] GS: 97 knots
[15:25] TAS: 94 knots
[15:25] IAS: 95 knots
[15:25] VS: -598 fpm
[15:26] Flaps: Position 2
[15:26] GS: 83 knots
[15:26] TAS: 80 knots
[15:26] IAS: 78 knots
[15:26] VS: -12 fpm
[15:26] Flaps: Position 3
[15:26] GS: 73 knots
[15:26] TAS: 72 knots
[15:26] IAS: 69 knots
[15:26] VS: -346 fpm
[15:27] NOTE: ----- LANDED -----
[15:27] Landing Rate: -198.39 fpm
[15:27] GS: 44 knots
[15:27] TAS: 44 knots
[15:27] IAS: 35 knots
[15:27] VS: -191 fpm
[15:27] FOB: 75 lbs
[15:27] Heading: 25°
[15:27] Pitch: 5°
[15:27] Bank: 1°
[15:27] Aircraft Weight: 1860.63 lbs
[15:27] Nearest Airport: 6R7
[15:27] Distance: 0.15 miles
[15:27] Runway: 2 - 6R7
[15:27] Ground Surface: Asphalt
[15:27] Ground Condition: Normal
[15:27] NOTE: Weather Report
[15:27] Wind Heading: 262°
[15:27] Wind Speed: 3 knots
[15:27] OAT: 14° C
[15:27] TAT: 15° C
[15:27] Precipitation: None
[15:27] Dew Point: 0° C
[15:27] Visibility: 84 miles
[15:27] METAR:
[15:27] View Mode: Virtual Cockpit
[15:27] Flaps: Position 2
[15:27] Flaps: Position 0
[15:28] Engine 1: Stopped
[15:28] Gate: 1 - 6R7
[15:28] NOTE: Flight Completed
[15:28] FS Aircraft: Cessna Super 170B Float Green
[15:28] FS Model: TT:ATCCOM.AC_MODEL 170.
[15:28] FS Type: TT:ATCCOM.ATC_NAME CESS
[15:28] FOB: 75 lbs
[15:28] Fuel Used: 32 lbs
[15:28] Flight Time: 00:33:55
[15:28] Flight Time (Dawn): 00:00:00
[15:28] Flight Time (Day): 00:33:55
[15:28] Flight Time (Dusk): 00:00:00
[15:28] Flight Time (Night): 00:00:00
[15:28] Total Landings: 4
[15:28] MaxSim Rate: 1x
[15:28] Cigar Box - 1.1.4.0
[15:28] ----- Flight Closed -----

Route Map